createdAt,value
2018-06-05T06:36:45.945Z,18.23
2018-06-05T06:37:48.055Z,18.19
2018-06-05T06:38:50.242Z,18.25
2018-06-05T06:39:52.499Z,18.23
2018-06-05T06:40:53.676Z,18.20
2018-06-05T06:41:55.064Z,18.17
2018-06-05T06:42:56.463Z,18.19
2018-06-05T06:43:57.841Z,18.20
2018-06-05T06:45:00.500Z,18.28
2018-06-05T06:46:01.051Z,18.17
2018-06-05T06:47:03.146Z,18.16
2018-06-05T06:48:04.532Z,18.17
2018-06-05T06:49:05.968Z,18.16
2018-06-05T06:50:07.319Z,18.28
2018-06-05T06:51:08.730Z,18.29
2018-06-05T06:52:10.920Z,18.23
2018-06-05T06:53:12.325Z,18.29
2018-06-05T06:54:13.746Z,18.34
2018-06-05T06:55:15.104Z,18.38
2018-06-05T06:56:16.496Z,18.32
2018-06-05T06:57:17.896Z,18.38
2018-06-05T06:58:19.280Z,18.36
2018-06-05T06:59:20.672Z,18.36
2018-06-05T07:00:22.067Z,18.41
2018-06-05T07:01:23.459Z,18.47
2018-06-05T07:02:24.853Z,18.50
2018-06-05T07:03:26.947Z,18.54
2018-06-05T07:04:29.596Z,18.56
2018-06-05T07:05:30.999Z,18.56
2018-06-05T07:06:33.212Z,18.65
2018-06-05T07:07:34.621Z,18.69
2018-06-05T07:08:36.017Z,18.64
2018-06-05T07:09:38.371Z,18.75
2018-06-05T07:10:39.773Z,18.75
2018-06-05T07:11:41.205Z,18.86
2018-06-05T07:12:42.579Z,18.76
2018-06-05T07:13:43.975Z,18.79
2018-06-05T07:14:45.375Z,18.82
2018-06-05T07:15:47.402Z,18.83
2018-06-05T07:16:49.510Z,18.83
2018-06-05T07:17:50.152Z,18.87
2018-06-05T07:18:52.438Z,18.90
2018-06-05T07:19:53.829Z,18.83
2018-06-05T07:20:55.219Z,18.86
2018-06-05T07:21:56.610Z,18.89
2018-06-05T07:22:58.984Z,18.90
2018-06-05T07:24:00.384Z,18.91
2018-06-05T07:25:01.789Z,18.90
2018-06-05T07:26:03.721Z,18.90
2018-06-05T07:27:05.077Z,18.78
2018-06-05T07:28:06.474Z,18.84
2018-06-05T07:29:07.863Z,18.87
2018-06-05T07:30:09.303Z,18.91
2018-06-05T07:31:10.657Z,18.84
2018-06-05T07:32:12.581Z,18.82
2018-06-05T07:33:13.981Z,18.82
2018-06-05T07:34:15.375Z,18.86
2018-06-05T07:35:17.446Z,18.78
2018-06-05T07:36:19.459Z,18.84
2018-06-05T07:37:20.855Z,18.90
2018-06-05T07:38:22.239Z,18.87
2018-06-05T07:39:23.628Z,18.87
2018-06-05T07:40:25.022Z,18.90
2018-06-05T07:41:27.197Z,18.90
2018-06-05T07:42:28.587Z,18.90
2018-06-05T07:43:30.521Z,19.01
2018-06-05T07:44:31.954Z,19.09
2018-06-05T07:45:33.360Z,19.12
2018-06-05T07:46:35.665Z,19.20
2018-06-05T07:47:38.827Z,19.17
2018-06-05T07:48:40.210Z,19.27
2018-06-05T07:49:42.217Z,19.30
2018-06-05T07:50:43.612Z,19.24
2018-06-05T07:51:45.006Z,19.27
2018-06-05T07:52:46.405Z,19.28
2018-06-05T07:53:47.793Z,19.40
2018-06-05T07:54:49.180Z,19.39
2018-06-05T07:55:50.579Z,19.39
2018-06-05T07:56:52.959Z,19.46
2018-06-05T07:57:54.356Z,19.39
2018-06-05T07:58:56.471Z,19.49
2018-06-05T07:59:57.893Z,19.40
2018-06-05T08:00:59.287Z,19.46
2018-06-05T08:02:00.685Z,19.40
2018-06-05T08:03:02.080Z,19.42
2018-06-05T08:04:04.123Z,19.35
2018-06-05T08:05:06.020Z,19.45
2018-06-05T08:06:07.403Z,19.52
2018-06-05T08:07:09.453Z,19.46
2018-06-05T08:08:11.639Z,19.43
2018-06-05T08:09:13.896Z,19.42
2018-06-05T08:10:15.282Z,19.45
2018-06-05T08:11:17.242Z,19.50
2018-06-05T08:12:19.378Z,19.38
2018-06-05T08:13:21.709Z,19.40
2018-06-05T08:14:23.750Z,19.34
2018-06-05T08:15:26.558Z,19.39
2018-06-05T08:16:27.962Z,19.43
2018-06-05T08:17:29.386Z,19.38
2018-06-05T08:18:30.776Z,19.40
2018-06-05T08:19:32.754Z,19.40
2018-06-05T08:20:34.734Z,19.38
2018-06-05T08:21:36.135Z,19.38
2018-06-05T08:22:37.535Z,19.42
2018-06-05T08:23:38.915Z,19.35
2018-06-05T08:24:40.309Z,19.32
2018-06-05T08:25:41.702Z,19.23
2018-06-05T08:26:44.786Z,19.28
2018-06-05T08:27:47.105Z,19.25
2018-06-05T08:28:48.485Z,19.28
2018-06-05T08:29:49.886Z,19.27
2018-06-05T08:30:51.279Z,19.25
2018-06-05T08:31:52.675Z,19.30
2018-06-05T08:32:54.068Z,19.25
2018-06-05T08:33:55.465Z,19.20
2018-06-05T08:34:56.850Z,19.07
2018-06-05T08:35:58.241Z,19.16
2018-06-05T08:37:00.348Z,19.10
2018-06-05T08:38:01.796Z,19.01
2018-06-05T08:39:03.129Z,19.09
2018-06-05T08:40:04.519Z,19.10
2018-06-05T08:41:05.923Z,19.06
2018-06-05T08:42:07.318Z,19.12
2018-06-05T08:43:09.470Z,19.06
2018-06-05T08:44:10.860Z,19.01
2018-06-05T08:45:12.290Z,18.94
2018-06-05T08:46:14.342Z,18.90
2018-06-05T08:47:15.725Z,18.91
2018-06-05T08:48:17.121Z,18.90
2018-06-05T08:49:19.306Z,18.96
2018-06-05T08:50:20.686Z,19.05
2018-06-05T08:51:22.085Z,18.97
2018-06-05T08:52:23.488Z,18.99
2018-06-05T08:53:25.739Z,18.97
2018-06-05T08:54:27.134Z,19.02
2018-06-05T08:55:28.524Z,19.09
2018-06-05T08:56:29.951Z,18.99
2018-06-05T08:57:31.307Z,19.07
2018-06-05T08:58:32.709Z,19.07
2018-06-05T08:59:34.103Z,18.94
2018-06-05T09:00:36.149Z,18.94
2018-06-05T09:01:37.562Z,19.02
2018-06-05T09:02:39.455Z,18.89
2018-06-05T09:03:40.852Z,18.87
2018-06-05T09:04:42.237Z,18.91
2018-06-05T09:05:43.626Z,19.02
2018-06-05T09:06:45.014Z,18.93
2018-06-05T09:07:46.405Z,18.99
2018-06-05T09:08:47.792Z,19.07
2018-06-05T09:09:49.190Z,19.12
2018-06-05T09:10:50.621Z,19.09
2018-06-05T09:11:51.974Z,19.06
2018-06-05T09:12:53.424Z,19.17
2018-06-05T09:13:54.712Z,19.24
2018-06-05T09:14:56.103Z,19.23
2018-06-05T09:15:57.496Z,19.15
2018-06-05T09:16:58.901Z,19.12
2018-06-05T09:18:00.293Z,19.09
2018-06-05T09:19:01.681Z,19.06
2018-06-05T09:20:03.071Z,19.06
2018-06-05T09:21:04.469Z,19.06
2018-06-05T09:22:05.854Z,19.02
2018-06-05T09:23:08.167Z,19.05
2018-06-05T09:24:09.561Z,19.05
2018-06-05T09:25:12.677Z,18.90
2018-06-05T09:26:14.064Z,18.93
2018-06-05T09:27:15.461Z,18.87
2018-06-05T09:28:16.851Z,18.79
2018-06-05T09:29:18.253Z,18.83
2018-06-05T09:30:19.636Z,18.93
2018-06-05T09:31:21.034Z,18.84
2018-06-05T09:32:23.304Z,18.87
2018-06-05T09:33:24.706Z,18.82
2018-06-05T09:34:26.129Z,18.82
2018-06-05T09:35:27.472Z,18.74
2018-06-05T09:36:32.062Z,18.87
2018-06-05T09:37:32.162Z,18.93
2018-06-05T09:38:33.546Z,18.91
2018-06-05T09:39:34.983Z,18.89
2018-06-05T09:40:36.332Z,19.01
2018-06-05T09:41:37.726Z,19.05
2018-06-05T09:42:39.112Z,19.06
2018-06-05T09:43:41.068Z,19.12
2018-06-05T09:44:42.507Z,19.10
2018-06-05T09:45:44.781Z,19.13
2018-06-05T09:46:46.933Z,19.25
2018-06-05T09:47:49.056Z,19.25
2018-06-05T09:48:50.455Z,19.40
2018-06-05T09:49:53.434Z,19.60
2018-06-05T09:50:54.812Z,19.50
2018-06-05T09:51:56.222Z,19.61
2018-06-05T09:52:57.603Z,19.65
2018-06-05T09:53:59.511Z,19.82
2018-06-05T09:55:01.496Z,20.04
2018-06-05T09:56:03.571Z,20.17
2018-06-05T09:57:04.248Z,20.38
2018-06-05T09:58:06.406Z,20.50
2018-06-05T09:59:08.374Z,20.81
2018-06-05T10:00:09.770Z,21.06
2018-06-05T10:01:11.165Z,21.08
2018-06-05T10:02:12.564Z,21.31
2018-06-05T10:03:13.954Z,21.38
2018-06-05T10:04:15.341Z,21.38
2018-06-05T10:05:16.742Z,21.43
2018-06-05T10:06:18.136Z,21.49
2018-06-05T10:07:19.536Z,21.58
2018-06-05T10:08:21.708Z,21.74
2018-06-05T10:09:23.100Z,21.89
2018-06-05T10:10:24.498Z,21.93
2018-06-05T10:11:25.887Z,21.83
2018-06-05T10:12:27.281Z,21.90
2018-06-05T10:13:28.694Z,22.14
2018-06-05T10:14:30.577Z,22.19
2018-06-05T10:15:32.098Z,22.42
2018-06-05T10:16:33.511Z,22.61
2018-06-05T10:17:35.581Z,22.81
2018-06-05T10:18:36.954Z,22.88
2018-06-05T10:19:39.202Z,23.01
2018-06-05T10:20:41.485Z,23.21
2018-06-05T10:21:44.561Z,23.14
2018-06-05T10:22:45.961Z,23.15
2018-06-05T10:23:47.365Z,23.31
2018-06-05T10:24:49.287Z,23.34
2018-06-05T10:25:50.692Z,23.31
2018-06-05T10:26:52.084Z,23.35
2018-06-05T10:27:53.484Z,23.22
2018-06-05T10:28:54.870Z,23.19
2018-06-05T10:29:56.276Z,23.14
2018-06-05T10:30:57.685Z,23.21
2018-06-05T10:31:59.094Z,23.29
2018-06-05T10:33:00.491Z,23.22
2018-06-05T10:34:01.900Z,23.21
2018-06-05T10:35:03.304Z,23.22
2018-06-05T10:36:06.216Z,23.23
2018-06-05T10:37:07.622Z,23.14
2018-06-05T10:38:09.774Z,23.16
2018-06-05T10:39:11.832Z,23.12
2018-06-05T10:40:13.287Z,23.37
2018-06-05T10:41:15.233Z,23.37
2018-06-05T10:42:18.596Z,23.38
2018-06-05T10:43:20.192Z,23.34
2018-06-05T10:44:21.599Z,23.29
2018-06-05T10:45:25.699Z,23.15
2018-06-05T10:46:27.090Z,23.22
2018-06-05T10:47:29.452Z,23.14
2018-06-05T10:48:31.462Z,23.23
2018-06-05T10:49:33.487Z,23.15
2018-06-05T10:50:35.528Z,23.11
2018-06-05T10:51:36.921Z,23.07
2018-06-05T10:52:38.322Z,23.01
2018-06-05T10:53:39.727Z,23.16
2018-06-05T10:54:42.962Z,23.15
2018-06-05T10:55:44.360Z,23.26
2018-06-05T10:56:47.106Z,23.39
2018-06-05T10:57:48.491Z,23.35
2018-06-05T10:58:49.897Z,23.47
2018-06-05T10:59:51.294Z,23.57
2018-06-05T11:00:53.536Z,23.71
2018-06-05T11:01:54.936Z,23.81
2018-06-05T11:02:56.334Z,23.92
2018-06-05T11:03:57.741Z,24.11
2018-06-05T11:04:59.138Z,24.09
2018-06-05T11:06:00.534Z,24.18
2018-06-05T11:07:02.659Z,24.27
2018-06-05T11:08:04.051Z,24.48
2018-06-05T11:09:06.723Z,24.44
2018-06-05T11:10:08.115Z,24.39
2018-06-05T11:11:09.528Z,24.42
2018-06-05T11:12:10.931Z,24.42
2018-06-05T11:13:12.329Z,24.37
2018-06-05T11:14:14.333Z,24.29
2018-06-05T11:15:15.731Z,24.29
2018-06-05T11:16:17.123Z,24.29
2018-06-05T11:17:19.201Z,24.29
2018-06-05T11:18:20.657Z,24.36
2018-06-05T11:19:22.011Z,24.44
2018-06-05T11:20:23.401Z,24.48
2018-06-05T11:21:25.706Z,24.83
2018-06-05T11:22:27.113Z,24.97
2018-06-05T11:23:28.504Z,25.12
2018-06-05T11:24:30.791Z,25.22
2018-06-05T11:25:32.194Z,25.49
2018-06-05T11:26:33.587Z,25.46
2018-06-05T11:27:34.986Z,25.53
2018-06-05T11:28:36.373Z,25.69
2018-06-05T11:29:37.772Z,25.81
2018-06-05T11:30:39.176Z,25.97
2018-06-05T11:31:41.456Z,26.19
2018-06-05T11:32:42.854Z,26.59
2018-06-05T11:33:44.248Z,26.94
2018-06-05T11:34:45.660Z,27.24
2018-06-05T11:35:47.058Z,27.35
2018-06-05T11:36:48.466Z,27.63
2018-06-05T11:37:49.859Z,28.14
2018-06-05T11:38:51.261Z,28.57
2018-06-05T11:39:52.658Z,29.03
2018-06-05T11:40:54.050Z,29.35
2018-06-05T11:41:55.453Z,29.51
2018-06-05T11:42:58.544Z,29.91
2018-06-05T11:44:00.753Z,30.23
2018-06-05T11:45:02.163Z,30.04
2018-06-05T11:46:03.575Z,30.06
2018-06-05T11:47:04.972Z,30.15
2018-06-05T11:48:06.382Z,30.11
2018-06-05T11:49:07.798Z,30.21
2018-06-05T11:50:09.192Z,30.21
2018-06-05T11:51:10.604Z,29.94
2018-06-05T11:52:11.993Z,29.36
2018-06-05T11:53:14.124Z,28.91
2018-06-05T11:54:17.151Z,28.77
2018-06-05T11:55:17.652Z,28.83
2018-06-05T11:56:19.058Z,28.89
2018-06-05T11:57:20.450Z,28.91
2018-06-05T11:58:22.832Z,28.97
2018-06-05T11:59:24.210Z,28.91
2018-06-05T12:00:25.630Z,29.45
2018-06-05T12:01:27.037Z,29.95
2018-06-05T12:02:28.431Z,30.63
2018-06-05T12:03:29.839Z,30.75
2018-06-05T12:04:31.253Z,31.28
2018-06-05T12:05:32.655Z,31.82
2018-06-05T12:06:34.057Z,32.09
2018-06-05T12:07:35.471Z,32.22
2018-06-05T12:08:36.873Z,31.97
2018-06-05T12:09:39.688Z,31.41
2018-06-05T12:10:44.147Z,30.90
2018-06-05T12:11:44.637Z,30.88
2018-06-05T12:12:46.748Z,30.75
2018-06-05T12:13:49.124Z,30.08
2018-06-05T12:14:52.015Z,29.48
2018-06-05T12:15:54.146Z,29.23
2018-06-05T12:16:54.777Z,29.15
2018-06-05T12:17:56.169Z,29.26
2018-06-05T12:18:57.569Z,29.02
2018-06-05T12:19:58.958Z,28.73
2018-06-05T12:21:00.361Z,28.40
2018-06-05T12:22:01.768Z,28.18
2018-06-05T12:23:03.166Z,27.76
2018-06-05T12:24:04.567Z,27.55
2018-06-05T12:25:05.978Z,27.16
2018-06-05T12:26:07.406Z,26.76
2018-06-05T12:27:09.532Z,26.49
2018-06-05T12:28:10.933Z,26.65
2018-06-05T12:29:12.335Z,27.05
2018-06-05T12:30:13.746Z,27.61
2018-06-05T12:31:15.149Z,28.17
2018-06-05T12:32:16.552Z,28.80
2018-06-05T12:33:17.948Z,29.41
2018-06-05T12:34:19.909Z,29.67
2018-06-05T12:35:21.318Z,29.60
2018-06-05T12:36:22.718Z,29.17
2018-06-05T12:37:24.108Z,28.77
2018-06-05T12:38:25.507Z,28.42
2018-06-05T12:39:28.271Z,28.46
2018-06-05T12:40:29.796Z,28.77
2018-06-05T12:41:31.855Z,28.89
2018-06-05T12:42:33.267Z,29.41
2018-06-05T12:43:34.680Z,29.67
2018-06-05T12:44:36.083Z,29.60
2018-06-05T12:45:37.482Z,29.67
2018-06-05T12:46:38.887Z,29.41
2018-06-05T12:47:41.175Z,29.12
2018-06-05T12:48:42.570Z,28.65
2018-06-05T12:49:44.841Z,28.32
2018-06-05T12:50:47.083Z,27.86
2018-06-05T12:51:48.481Z,27.49
2018-06-05T12:52:49.890Z,27.02
2018-06-05T12:53:51.298Z,26.61
2018-06-05T12:54:53.272Z,26.28
2018-06-05T12:55:54.676Z,26.12
2018-06-05T12:56:56.075Z,26.03
2018-06-05T12:57:57.503Z,25.91
2018-06-05T12:58:58.878Z,25.86
2018-06-05T13:00:00.284Z,25.72
2018-06-05T13:01:01.690Z,25.71
2018-06-05T13:02:03.088Z,25.41
2018-06-05T13:03:04.478Z,25.41
2018-06-05T13:04:05.889Z,25.36
2018-06-05T13:05:07.283Z,25.41
2018-06-05T13:06:08.680Z,25.26
2018-06-05T13:07:10.996Z,25.16
2018-06-05T13:08:12.398Z,25.14
2018-06-05T13:09:15.401Z,25.14
2018-06-05T13:10:16.795Z,25.05
2018-06-05T13:11:18.189Z,25.08
2018-06-05T13:12:19.579Z,25.07
2018-06-05T13:13:20.987Z,25.05
2018-06-05T13:14:23.162Z,25.01
2018-06-05T13:15:25.320Z,24.97
2018-06-05T13:16:26.713Z,24.82
2018-06-05T13:17:28.167Z,24.55
2018-06-05T13:18:29.535Z,24.45
2018-06-05T13:19:32.338Z,24.31
2018-06-05T13:20:34.307Z,24.30
2018-06-05T13:21:35.709Z,24.29
2018-06-05T13:22:37.128Z,24.41
2018-06-05T13:23:39.879Z,24.39
2018-06-05T13:24:41.281Z,24.33
2018-06-05T13:25:42.690Z,24.46
2018-06-05T13:26:44.638Z,24.48
2018-06-05T13:27:46.044Z,24.52
2018-06-05T13:28:47.926Z,24.56
2018-06-05T13:29:49.349Z,24.60
2018-06-05T13:30:50.741Z,24.59
2018-06-05T13:31:52.129Z,24.55
2018-06-05T13:32:53.535Z,24.70
2018-06-05T13:33:54.936Z,24.63
2018-06-05T13:34:56.349Z,24.59
2018-06-05T13:35:57.733Z,24.53
2018-06-05T13:36:59.132Z,24.44
2018-06-05T13:38:00.529Z,24.46
2018-06-05T13:39:02.373Z,24.36
2018-06-05T13:40:04.339Z,24.33
2018-06-05T13:41:05.746Z,24.27
2018-06-05T13:42:07.148Z,24.30
2018-06-05T13:43:08.542Z,24.31
2018-06-05T13:44:09.936Z,24.27
2018-06-05T13:45:11.378Z,24.29
2018-06-05T13:46:12.784Z,24.30
2018-06-05T13:47:14.181Z,24.31
2018-06-05T13:48:15.583Z,24.27
2018-06-05T13:49:16.972Z,24.21
2018-06-05T13:50:18.380Z,24.27
2018-06-05T13:51:19.778Z,24.23
2018-06-05T13:52:21.225Z,24.24
2018-06-05T13:53:22.580Z,24.24
2018-06-05T13:54:23.972Z,24.27
2018-06-05T13:55:25.376Z,24.36
2018-06-05T13:56:26.774Z,24.36
2018-06-05T13:57:28.854Z,24.42
2018-06-05T13:58:30.247Z,24.51
2018-06-05T13:59:31.642Z,24.56
2018-06-05T14:00:33.040Z,24.60
2018-06-05T14:01:35.813Z,24.61
2018-06-05T14:02:37.213Z,24.64
2018-06-05T14:03:38.627Z,24.63
2018-06-05T14:04:40.000Z,24.59
2018-06-05T14:05:41.399Z,24.49
2018-06-05T14:06:42.787Z,24.48
2018-06-05T14:07:44.190Z,24.46
2018-06-05T14:08:46.104Z,24.36
2018-06-05T14:09:48.450Z,24.30
2018-06-05T14:10:50.761Z,24.34
2018-06-05T14:11:52.973Z,24.34
2018-06-05T14:12:54.356Z,24.33
2018-06-05T14:13:55.760Z,24.29
2018-06-05T14:14:57.160Z,24.15
2018-06-05T14:15:58.550Z,24.06
2018-06-05T14:16:59.938Z,24.12
2018-06-05T14:18:02.042Z,24.11
2018-06-05T14:19:04.354Z,24.09
2018-06-05T14:20:05.764Z,24.04
2018-06-05T14:21:07.166Z,24.06
2018-06-05T14:22:08.556Z,24.12
2018-06-05T14:23:09.962Z,24.19
2018-06-05T14:24:11.359Z,24.19
2018-06-05T14:25:12.751Z,24.23
2018-06-05T14:26:15.079Z,24.23
2018-06-05T14:27:16.483Z,24.21
2018-06-05T14:28:17.878Z,24.29
2018-06-05T14:29:20.065Z,24.29
2018-06-05T14:30:22.711Z,24.14
2018-06-05T14:31:23.351Z,24.05
2018-06-05T14:32:24.744Z,24.04
2018-06-05T14:33:26.145Z,24.00
2018-06-05T14:34:27.546Z,23.96
2018-06-05T14:35:28.949Z,23.89
2018-06-05T14:36:30.346Z,23.90
2018-06-05T14:37:31.738Z,23.84
2018-06-05T14:38:33.128Z,23.75
2018-06-05T14:39:34.540Z,23.82
2018-06-05T14:40:35.955Z,23.84
2018-06-05T14:41:37.352Z,23.77
2018-06-05T14:42:38.734Z,23.78
2018-06-05T14:43:40.743Z,23.62
2018-06-05T14:44:42.158Z,23.63
2018-06-05T14:45:43.552Z,23.60
2018-06-05T14:46:44.949Z,23.62
2018-06-05T14:47:46.340Z,23.60
2018-06-05T14:48:47.738Z,23.67
2018-06-05T14:49:49.135Z,23.59
2018-06-05T14:50:51.753Z,23.57
2018-06-05T14:51:53.153Z,23.62
2018-06-05T14:52:56.275Z,23.62
2018-06-05T14:53:57.670Z,23.60
2018-06-05T14:54:59.787Z,23.56
2018-06-05T14:56:02.083Z,23.59
2018-06-05T14:57:04.379Z,23.56
2018-06-05T14:58:05.779Z,23.42
2018-06-05T14:59:07.181Z,23.47
2018-06-05T15:00:08.584Z,23.39
2018-06-05T15:01:09.965Z,23.49
2018-06-05T15:02:11.365Z,23.38
2018-06-05T15:03:12.760Z,23.42
2018-06-05T15:04:14.163Z,23.31
2018-06-05T15:05:15.566Z,23.31
2018-06-05T15:06:16.959Z,23.32
2018-06-05T15:07:18.359Z,23.37
2018-06-05T15:08:19.753Z,23.31
2018-06-05T15:09:21.156Z,23.26
2018-06-05T15:10:22.545Z,23.22
2018-06-05T15:11:23.942Z,23.26
2018-06-05T15:12:25.340Z,23.29
2018-06-05T15:13:26.736Z,23.29
2018-06-05T15:14:28.123Z,23.25
2018-06-05T15:15:29.525Z,23.29
2018-06-05T15:16:30.926Z,23.26
2018-06-05T15:17:32.312Z,23.26
2018-06-05T15:18:34.403Z,23.35
2018-06-05T15:19:36.560Z,23.26
2018-06-05T15:20:37.954Z,23.26
2018-06-05T15:21:39.365Z,23.22
2018-06-05T15:22:40.757Z,23.22
2018-06-05T15:23:42.150Z,23.18
2018-06-05T15:24:43.546Z,23.19
2018-06-05T15:25:44.941Z,23.21
2018-06-05T15:26:46.337Z,23.22
2018-06-05T15:27:47.732Z,23.16
2018-06-05T15:28:49.131Z,23.25
2018-06-05T15:29:50.527Z,23.22
2018-06-05T15:30:54.736Z,23.18
2018-06-05T15:31:56.242Z,23.12
2018-06-05T15:32:56.761Z,23.06
2018-06-05T15:33:58.198Z,23.12
2018-06-05T15:34:59.570Z,23.15
2018-06-05T15:36:00.967Z,23.15
2018-06-05T15:37:02.360Z,23.07
2018-06-05T15:38:03.782Z,23.09
2018-06-05T15:39:06.812Z,22.99
2018-06-05T15:40:08.196Z,23.03
2018-06-05T15:41:09.595Z,23.07
2018-06-05T15:42:11.751Z,23.04
2018-06-05T15:43:13.163Z,23.00
2018-06-05T15:44:15.306Z,22.99
2018-06-05T15:45:16.679Z,23.04
2018-06-05T15:46:18.080Z,23.03
2018-06-05T15:47:19.476Z,22.89
2018-06-05T15:48:20.864Z,22.99
2018-06-05T15:49:22.260Z,22.94
2018-06-05T15:50:23.663Z,22.91
2018-06-05T15:51:25.047Z,22.93
2018-06-05T15:52:26.450Z,22.89
2018-06-05T15:53:27.840Z,22.96
2018-06-05T15:54:29.239Z,22.91
2018-06-05T15:55:30.633Z,22.89
2018-06-05T15:56:32.034Z,22.88
2018-06-05T15:57:33.435Z,22.96
2018-06-05T15:58:34.838Z,22.96
2018-06-05T15:59:36.237Z,22.85
2018-06-05T16:00:37.649Z,22.81
2018-06-05T16:01:39.754Z,22.84
2018-06-05T16:02:40.392Z,22.70
2018-06-05T16:03:41.796Z,22.64
2018-06-05T16:04:44.712Z,22.69
2018-06-05T16:05:46.081Z,22.56
2018-06-05T16:06:47.478Z,22.61
2018-06-05T16:07:48.876Z,22.52
2018-06-05T16:08:51.203Z,22.59
2018-06-05T16:09:52.582Z,22.52
2018-06-05T16:10:53.966Z,22.46
2018-06-05T16:11:55.944Z,22.35
2018-06-05T16:12:57.339Z,22.33
2018-06-05T16:13:58.730Z,22.27
2018-06-05T16:15:00.873Z,22.30
2018-06-05T16:16:02.239Z,22.29
2018-06-05T16:17:04.173Z,22.27
2018-06-05T16:18:05.566Z,22.30
2018-06-05T16:19:06.958Z,22.23
2018-06-05T16:20:08.351Z,22.21
2018-06-05T16:21:09.743Z,22.20
2018-06-05T16:22:12.017Z,22.29
2018-06-05T16:23:13.409Z,22.12
2018-06-05T16:24:14.805Z,22.14
2018-06-05T16:25:16.210Z,22.05
2018-06-05T16:26:17.611Z,22.01
2018-06-05T16:27:19.000Z,22.02
2018-06-05T16:28:20.392Z,21.99
2018-06-05T16:29:21.787Z,22.04
2018-06-05T16:30:23.194Z,22.06
2018-06-05T16:31:24.579Z,22.01
2018-06-05T16:32:25.973Z,22.02
2018-06-05T16:33:27.440Z,21.94
2018-06-05T16:34:28.788Z,21.98
2018-06-05T16:35:30.180Z,22.02
2018-06-05T16:36:32.184Z,21.99
2018-06-05T16:37:33.583Z,21.91
2018-06-05T16:38:34.975Z,21.96
2018-06-05T16:39:36.372Z,21.86
2018-06-05T16:40:37.770Z,21.85
2018-06-05T16:41:39.653Z,21.89
2018-06-05T16:42:41.045Z,21.81
2018-06-05T16:43:43.463Z,21.71
2018-06-05T16:44:44.846Z,21.70
2018-06-05T16:45:46.260Z,21.71
2018-06-05T16:46:48.333Z,21.67
2018-06-05T16:47:49.724Z,21.56
2018-06-05T16:48:51.503Z,21.64
2018-06-05T16:49:52.895Z,21.59
2018-06-05T16:50:54.292Z,21.59
2018-06-05T16:51:56.389Z,21.63
2018-06-05T16:52:57.812Z,21.52
2018-06-05T16:53:59.147Z,21.46
2018-06-05T16:55:00.556Z,21.37
2018-06-05T16:56:05.443Z,21.37
2018-06-05T16:57:06.837Z,21.43
2018-06-05T16:58:08.228Z,21.38
2018-06-05T16:59:09.584Z,21.45
2018-06-05T17:00:11.440Z,21.28
2018-06-05T17:01:12.830Z,21.38
2018-06-05T17:02:14.222Z,21.34
2018-06-05T17:03:16.239Z,21.40
2018-06-05T17:04:17.637Z,21.26
2018-06-05T17:05:20.406Z,21.31
2018-06-05T17:06:21.824Z,21.15
2018-06-05T17:07:23.924Z,21.12
2018-06-05T17:08:25.318Z,21.16
2018-06-05T17:09:26.714Z,21.01
2018-06-05T17:10:28.742Z,21.00
2018-06-05T17:11:30.626Z,21.09
2018-06-05T17:12:32.024Z,21.06
2018-06-05T17:13:34.352Z,21.01
2018-06-05T17:14:35.709Z,20.93
2018-06-05T17:15:37.099Z,20.94
2018-06-05T17:16:40.367Z,20.96
2018-06-05T17:17:41.745Z,20.82
2018-06-05T17:18:44.005Z,20.85
2018-06-05T17:19:45.395Z,20.90
2018-06-05T17:20:46.797Z,20.82
2018-06-05T17:21:49.160Z,20.79
2018-06-05T17:22:51.134Z,20.82
2018-06-05T17:23:52.535Z,20.73
2018-06-05T17:24:53.927Z,20.64
2018-06-05T17:25:55.315Z,20.54
2018-06-05T17:26:56.712Z,20.64
2018-06-05T17:27:58.106Z,20.58
2018-06-05T17:28:59.502Z,20.53
2018-06-05T17:30:00.854Z,20.51
2018-06-05T17:31:02.244Z,20.48
2018-06-05T17:32:03.645Z,20.57
2018-06-05T17:33:05.040Z,20.56
2018-06-05T17:34:06.438Z,20.54
2018-06-05T17:35:08.685Z,20.54
2018-06-05T17:36:10.041Z,20.44
2018-06-05T17:37:12.107Z,20.34
2018-06-05T17:38:13.513Z,20.34
2018-06-05T17:39:14.896Z,20.37
2018-06-05T17:40:16.305Z,20.35
2018-06-05T17:41:17.694Z,20.30
2018-06-05T17:42:19.045Z,20.34
2018-06-05T17:43:21.415Z,20.33
2018-06-05T17:44:22.806Z,20.38
2018-06-05T17:45:24.934Z,20.33
2018-06-05T17:46:27.042Z,20.30
2018-06-05T17:47:28.443Z,20.25
2018-06-05T17:48:29.832Z,20.20
2018-06-05T17:49:32.039Z,20.19
2018-06-05T17:50:34.829Z,20.16
2018-06-05T17:51:36.816Z,20.16
2018-06-05T17:52:37.582Z,20.19
2018-06-05T17:53:40.405Z,20.07
2018-06-05T17:54:42.498Z,20.05
2018-06-05T17:55:43.848Z,20.12
2018-06-05T17:56:45.199Z,20.02
2018-06-05T17:57:46.646Z,20.10
2018-06-05T17:58:47.944Z,20.00
2018-06-05T17:59:49.294Z,20.00
2018-06-05T18:00:51.617Z,20.00
2018-06-05T18:01:52.963Z,20.04
2018-06-05T18:02:54.320Z,20.04
2018-06-05T18:03:55.684Z,19.95
2018-06-05T18:04:57.069Z,19.95
2018-06-05T18:05:59.410Z,19.89
2018-06-05T18:07:01.379Z,19.87
2018-06-05T18:08:02.777Z,19.92
2018-06-05T18:09:04.186Z,19.90
2018-06-05T18:10:05.580Z,19.80
2018-06-05T18:11:07.723Z,19.80
2018-06-05T18:12:09.112Z,19.79
2018-06-05T18:13:10.518Z,19.80
2018-06-05T18:14:13.451Z,19.82
2018-06-05T18:15:14.858Z,19.76
2018-06-05T18:16:16.270Z,19.82
2018-06-05T18:17:19.024Z,19.79
2018-06-05T18:18:20.466Z,19.75
2018-06-05T18:19:21.769Z,19.76
2018-06-05T18:20:23.158Z,19.65
2018-06-05T18:21:25.483Z,19.64
2018-06-05T18:22:26.880Z,19.64
2018-06-05T18:23:28.273Z,19.67
2018-06-05T18:24:31.908Z,19.65
2018-06-05T18:25:33.311Z,19.57
2018-06-05T18:26:34.742Z,19.61
2018-06-05T18:27:36.099Z,19.61
2018-06-05T18:28:37.500Z,19.47
2018-06-05T18:29:39.446Z,19.49
2018-06-05T18:30:40.836Z,19.49
2018-06-05T18:31:42.229Z,19.46
2018-06-05T18:32:44.480Z,19.46
2018-06-05T18:33:45.875Z,19.42
2018-06-05T18:34:47.290Z,19.39
2018-06-05T18:35:50.040Z,19.43
2018-06-05T18:36:51.443Z,19.39
2018-06-05T18:37:52.842Z,19.40
2018-06-05T18:38:54.237Z,19.38
2018-06-05T18:39:55.636Z,19.35
2018-06-05T18:40:57.752Z,19.39
2018-06-05T18:41:59.133Z,19.34
2018-06-05T18:43:01.818Z,19.27
2018-06-05T18:44:03.203Z,19.16
2018-06-05T18:45:06.892Z,19.24
2018-06-05T18:46:08.290Z,19.13
2018-06-05T18:47:10.571Z,19.12
2018-06-05T18:48:11.965Z,19.10
2018-06-05T18:49:13.366Z,19.15
2018-06-05T18:50:14.755Z,19.10
2018-06-05T18:51:16.154Z,19.05
2018-06-05T18:52:17.540Z,18.97
2018-06-05T18:53:18.942Z,18.97
2018-06-05T18:54:21.060Z,19.06
2018-06-05T18:55:22.447Z,18.94
2018-06-05T18:56:23.841Z,18.89
2018-06-05T18:57:26.057Z,18.93
2018-06-05T18:58:28.027Z,18.84
2018-06-05T18:59:29.423Z,18.82
2018-06-05T19:00:30.818Z,18.96
2018-06-05T19:01:32.255Z,18.82
2018-06-05T19:02:34.054Z,18.76
2018-06-05T19:03:35.450Z,18.75
2018-06-05T19:04:36.841Z,18.69
2018-06-05T19:05:38.238Z,18.69
2018-06-05T19:06:39.626Z,18.57
2018-06-05T19:07:41.016Z,18.64
2018-06-05T19:08:43.981Z,18.59
2018-06-05T19:09:45.378Z,18.51
2018-06-05T19:10:47.652Z,18.47
2018-06-05T19:11:49.950Z,18.44
2018-06-05T19:12:51.336Z,18.44
2018-06-05T19:13:52.714Z,18.39
2018-06-05T19:14:54.115Z,18.39
2018-06-05T19:15:55.502Z,18.41
2018-06-05T19:16:56.902Z,18.34
2018-06-05T19:17:58.301Z,18.36
2018-06-05T19:19:00.434Z,18.25
2018-06-05T19:20:03.643Z,18.31
2018-06-05T19:21:05.968Z,18.20
2018-06-05T19:22:07.341Z,18.21
2018-06-05T19:23:09.242Z,18.26
2018-06-05T19:24:10.634Z,18.19
2018-06-05T19:25:12.972Z,18.14
2018-06-05T19:26:14.350Z,18.14
2018-06-05T19:27:15.748Z,18.16
2018-06-05T19:28:19.768Z,18.19
2018-06-05T19:29:21.166Z,18.09
2018-06-05T19:30:23.337Z,18.11
2018-06-05T19:31:24.534Z,18.07
2018-06-05T19:32:25.925Z,18.04
2018-06-05T19:33:27.334Z,18.04
2018-06-05T19:34:29.703Z,17.96
2018-06-05T19:35:32.950Z,17.95
2018-06-05T19:36:35.871Z,17.94
2018-06-05T19:37:37.267Z,17.84
2018-06-05T19:38:39.346Z,17.80
2018-06-05T19:39:40.883Z,17.86
2018-06-05T19:40:42.681Z,17.86
2018-06-05T19:41:45.109Z,17.80
2018-06-05T19:42:47.379Z,17.74
2018-06-05T19:43:50.187Z,17.81
2018-06-05T19:44:51.628Z,17.76
2018-06-05T19:45:53.766Z,17.66
2018-06-05T19:46:56.331Z,17.73
2018-06-05T19:47:57.727Z,17.74
2018-06-05T19:49:01.893Z,17.53
2018-06-05T19:50:03.279Z,17.55